createdAt,value
2018-08-04T00:01:17.801Z,45.40
2018-08-04T00:03:46.608Z,46.15
2018-08-04T00:06:15.084Z,43.60
2018-08-04T00:08:43.531Z,45.33
2018-08-04T00:11:11.995Z,49.90
2018-08-04T00:13:40.519Z,45.17
2018-08-04T00:16:09.210Z,53.67
2018-08-04T00:18:37.638Z,53.47
2018-08-04T00:21:06.306Z,46.05
2018-08-04T00:23:34.970Z,39.03
2018-08-04T00:26:03.386Z,47.03
2018-08-04T00:28:31.839Z,42.00
2018-08-04T00:31:00.338Z,38.43
2018-08-04T00:33:28.959Z,38.58
2018-08-04T00:35:57.428Z,47.45
2018-08-04T00:38:25.894Z,43.33
2018-08-04T00:40:54.335Z,34.90
2018-08-04T00:43:22.780Z,39.83
2018-08-04T00:45:51.324Z,41.42
2018-08-04T00:48:19.821Z,35.77
2018-08-04T00:50:48.310Z,47.60
2018-08-04T00:53:16.791Z,37.77
2018-08-04T00:55:45.252Z,37.13
2018-08-04T00:58:13.685Z,50.00
2018-08-04T01:00:42.171Z,47.30
2018-08-04T01:03:10.657Z,44.10
2018-08-04T01:05:39.303Z,53.17
2018-08-04T01:08:07.781Z,38.83
2018-08-04T01:10:36.265Z,47.17
2018-08-04T01:16:36.068Z,45.90
2018-08-04T01:19:04.576Z,48.50
2018-08-04T01:21:33.019Z,42.33
2018-08-04T01:24:01.520Z,47.43
2018-08-04T01:26:29.980Z,50.53
2018-08-04T01:28:58.577Z,52.20
2018-08-04T01:31:27.122Z,47.57
2018-08-04T01:33:55.607Z,49.77
2018-08-04T01:36:24.053Z,46.13
2018-08-04T01:38:52.471Z,45.53
2018-08-04T01:41:21.172Z,46.50
2018-08-04T01:43:49.616Z,48.97
2018-08-04T01:46:18.069Z,56.30
2018-08-04T01:48:46.542Z,51.97
2018-08-04T01:51:15.009Z,54.70
2018-08-04T01:53:43.502Z,52.17
2018-08-04T01:56:11.923Z,60.98
2018-08-04T01:58:40.361Z,63.13
2018-08-04T02:01:08.888Z,69.17
2018-08-04T02:03:37.351Z,65.43
2018-08-04T02:06:06.215Z,64.80
2018-08-04T02:08:34.721Z,66.40
2018-08-04T02:11:03.973Z,76.87
2018-08-04T02:16:31.311Z,71.93
2018-08-04T02:19:00.173Z,67.83
2018-08-04T02:21:28.606Z,59.70
2018-08-04T02:23:57.064Z,63.33
2018-08-04T02:26:25.512Z,63.10
2018-08-04T02:28:53.955Z,59.80
2018-08-04T02:31:22.429Z,62.05
2018-08-04T02:33:50.924Z,59.57
2018-08-04T02:36:19.343Z,71.17
2018-08-04T02:38:47.791Z,59.90
2018-08-04T02:41:16.234Z,56.98
2018-08-04T02:43:44.735Z,60.40
2018-08-04T02:46:13.260Z,61.53
2018-08-04T02:48:41.870Z,59.18
2018-08-04T02:51:10.358Z,62.70
2018-08-04T02:53:38.833Z,61.60
2018-08-04T02:56:08.000Z,61.58
2018-08-04T02:58:36.475Z,67.03
2018-08-04T03:01:04.945Z,54.57
2018-08-04T03:03:33.394Z,60.33
2018-08-04T03:06:01.884Z,60.93
2018-08-04T03:08:30.358Z,59.93
2018-08-04T03:10:58.855Z,51.47
2018-08-04T03:13:27.315Z,52.90
2018-08-04T03:15:55.923Z,62.98
2018-08-04T03:18:24.415Z,68.07
2018-08-04T03:20:52.887Z,71.93
2018-08-04T03:23:21.687Z,65.00
2018-08-04T03:25:50.095Z,60.27
2018-08-04T03:28:18.639Z,61.83
2018-08-04T03:30:47.132Z,61.40
2018-08-04T03:33:15.575Z,62.27
2018-08-04T03:35:44.251Z,67.13
2018-08-04T03:38:13.117Z,70.80
2018-08-04T03:40:41.604Z,63.93
2018-08-04T03:43:10.018Z,59.63
2018-08-04T03:45:38.472Z,61.77
2018-08-04T03:48:06.951Z,54.90
2018-08-04T03:50:35.413Z,52.07
2018-08-04T03:53:04.752Z,51.57
2018-08-04T03:55:33.233Z,43.35
2018-08-04T03:58:01.690Z,43.27
2018-08-04T04:00:30.143Z,53.90
2018-08-04T04:02:58.575Z,52.80
2018-08-04T04:05:27.391Z,42.85
2018-08-04T04:07:55.873Z,50.80
2018-08-04T04:10:24.324Z,46.27
2018-08-04T04:12:52.799Z,45.70
2018-08-04T04:15:21.328Z,40.40
2018-08-04T04:17:50.068Z,42.60
2018-08-04T04:20:19.701Z,43.93
2018-08-04T04:22:48.882Z,48.23
2018-08-04T04:25:17.388Z,52.00
2018-08-04T04:27:45.835Z,49.20
2018-08-04T04:30:15.277Z,53.50
2018-08-04T04:32:43.716Z,49.03
2018-08-04T04:35:12.216Z,53.37
2018-08-04T04:41:11.780Z,38.60
2018-08-04T04:43:40.590Z,40.73
2018-08-04T04:46:09.079Z,42.83
2018-08-04T04:48:37.602Z,46.47
2018-08-04T04:51:05.986Z,52.10
2018-08-04T04:53:34.427Z,51.23
2018-08-04T04:56:02.889Z,57.37
2018-08-04T04:58:31.375Z,51.60
2018-08-04T05:00:59.846Z,51.50
2018-08-04T05:03:28.275Z,47.40
2018-08-04T05:05:56.795Z,49.83
2018-08-04T05:08:25.681Z,42.10
2018-08-04T05:10:54.083Z,42.43
2018-08-04T05:13:22.581Z,46.93
2018-08-04T05:15:51.035Z,38.83
2018-08-04T05:18:19.459Z,40.20
2018-08-04T05:20:47.916Z,52.03
2018-08-04T05:23:16.408Z,39.43
2018-08-04T05:25:44.907Z,42.95
2018-08-04T05:28:13.357Z,39.90
2018-08-04T05:30:41.888Z,39.97
2018-08-04T05:33:10.365Z,36.77
2018-08-04T05:35:38.848Z,34.87
2018-08-04T05:38:07.600Z,38.87
2018-08-04T05:40:36.068Z,36.10
2018-08-04T05:43:04.527Z,38.87
2018-08-04T05:45:32.986Z,34.88
2018-08-04T05:48:01.501Z,34.17
2018-08-04T05:50:30.022Z,35.07
2018-08-04T05:52:58.568Z,36.15
2018-08-04T05:55:26.985Z,41.00
2018-08-04T05:57:55.470Z,39.87
2018-08-04T06:00:23.967Z,37.33
2018-08-04T06:02:52.397Z,43.00
2018-08-04T06:05:20.862Z,34.90
2018-08-04T06:07:49.824Z,41.98
2018-08-04T06:10:18.327Z,42.90
2018-08-04T06:12:46.770Z,39.27
2018-08-04T06:15:15.227Z,43.67
2018-08-04T06:17:43.966Z,44.83
2018-08-04T06:20:12.651Z,46.63
2018-08-04T06:22:41.250Z,44.43
2018-08-04T06:25:09.696Z,40.80
2018-08-04T06:27:38.131Z,39.23
2018-08-04T06:30:08.447Z,41.43
2018-08-04T06:32:36.851Z,25.60
2018-08-04T06:35:05.379Z,25.87
2018-08-04T06:37:33.988Z,23.37
2018-08-04T06:40:02.428Z,24.00
2018-08-04T06:42:30.860Z,24.10
2018-08-04T06:44:59.313Z,22.27
2018-08-04T06:47:27.814Z,26.35
2018-08-04T06:49:56.278Z,24.10
2018-08-04T06:52:24.771Z,26.33
2018-08-04T06:54:53.338Z,23.87
2018-08-04T06:57:21.880Z,19.55
2018-08-04T06:59:50.284Z,35.90
2018-08-04T07:02:18.816Z,20.70
2018-08-04T07:04:47.284Z,31.83
2018-08-04T07:07:15.712Z,27.30
2018-08-04T07:09:44.166Z,22.20
2018-08-04T07:12:12.688Z,27.10
2018-08-04T07:14:42.231Z,20.90
2018-08-04T07:17:10.949Z,17.13
2018-08-04T07:19:39.379Z,15.93
2018-08-04T07:22:07.769Z,17.63
2018-08-04T07:24:36.238Z,16.32
2018-08-04T07:27:04.714Z,17.10
2018-08-04T07:29:33.139Z,20.80
2018-08-04T07:32:01.606Z,20.50
2018-08-04T07:34:30.017Z,16.17
2018-08-04T07:36:58.664Z,17.50
2018-08-04T07:39:27.124Z,17.60
2018-08-04T07:41:55.599Z,16.50
2018-08-04T07:44:24.993Z,20.73
2018-08-04T07:46:53.403Z,18.02
2018-08-04T07:49:21.866Z,15.80
2018-08-04T07:51:50.346Z,16.10
2018-08-04T07:54:18.799Z,18.37
2018-08-04T07:56:47.270Z,19.73
2018-08-04T07:59:15.739Z,21.53
2018-08-04T08:01:44.278Z,17.73
2018-08-04T08:04:12.715Z,16.63
2018-08-04T08:06:41.147Z,24.80
2018-08-04T08:09:09.836Z,18.20
2018-08-04T08:11:38.324Z,22.07
2018-08-04T08:14:06.779Z,17.00
2018-08-04T08:16:35.223Z,16.07
2018-08-04T08:19:03.657Z,14.50
2018-08-04T08:21:32.163Z,12.90
2018-08-04T08:24:00.967Z,13.30
2018-08-04T08:26:29.393Z,15.10
2018-08-04T08:28:57.801Z,15.90
2018-08-04T08:31:26.282Z,15.33
2018-08-04T08:33:54.758Z,16.93
2018-08-04T08:36:23.299Z,16.43
2018-08-04T08:38:52.024Z,14.57
2018-08-04T08:41:20.495Z,13.50
2018-08-04T08:43:49.231Z,23.20
2018-08-04T08:46:17.674Z,14.13
2018-08-04T08:48:46.129Z,16.83
2018-08-04T08:51:14.591Z,15.37
2018-08-04T08:53:43.118Z,14.23
2018-08-04T08:56:11.492Z,12.55
2018-08-04T08:58:39.909Z,20.47
2018-08-04T09:01:08.428Z,13.67
2018-08-04T09:03:36.899Z,14.70
2018-08-04T09:06:05.590Z,14.67
2018-08-04T09:08:34.315Z,12.43
2018-08-04T09:11:02.715Z,12.15
2018-08-04T09:13:31.225Z,15.03
2018-08-04T09:15:59.703Z,11.70
2018-08-04T09:18:28.372Z,12.60
2018-08-04T09:20:57.779Z,12.15
2018-08-04T09:23:26.572Z,13.30
2018-08-04T09:25:55.031Z,14.50
2018-08-04T09:28:23.490Z,11.63
2018-08-04T09:30:51.946Z,14.00
2018-08-04T09:33:20.414Z,17.87
2018-08-04T09:35:48.854Z,12.80
2018-08-04T09:38:17.294Z,10.70
2018-08-04T09:40:46.002Z,11.30
2018-08-04T09:43:14.448Z,11.13
2018-08-04T09:45:42.883Z,9.23
2018-08-04T09:48:11.473Z,11.10
2018-08-04T09:50:39.985Z,12.73
2018-08-04T09:53:08.651Z,13.40
2018-08-04T09:55:37.220Z,12.47
2018-08-04T09:58:06.042Z,11.40
2018-08-04T10:00:39.640Z,9.90
2018-08-04T10:03:08.183Z,9.58
2018-08-04T10:05:36.708Z,8.70
2018-08-04T10:08:05.143Z,9.03
2018-08-04T10:10:33.608Z,9.90
2018-08-04T10:13:02.033Z,9.87
2018-08-04T10:15:30.476Z,11.70
2018-08-04T10:17:58.958Z,10.00
2018-08-04T10:20:27.428Z,11.20
2018-08-04T10:22:55.925Z,15.93
2018-08-04T10:25:24.567Z,11.43
2018-08-04T10:27:53.037Z,11.10
2018-08-04T10:30:21.631Z,10.65
2018-08-04T10:32:50.113Z,11.50
2018-08-04T10:35:18.520Z,10.00
2018-08-04T10:37:47.063Z,10.10
2018-08-04T10:40:15.515Z,11.90
2018-08-04T10:42:44.061Z,15.33
2018-08-04T10:45:12.540Z,12.45
2018-08-04T10:47:40.992Z,10.33
2018-08-04T10:50:09.512Z,9.70
2018-08-04T10:52:38.313Z,10.70
2018-08-04T10:55:06.772Z,9.43
2018-08-04T10:57:35.213Z,9.67
2018-08-04T11:00:04.018Z,10.73
2018-08-04T11:02:32.471Z,10.17
2018-08-04T11:05:00.900Z,9.93
2018-08-04T11:07:29.388Z,10.37
2018-08-04T11:09:57.801Z,9.90
2018-08-04T11:12:26.461Z,15.85
2018-08-04T11:14:54.832Z,12.67
2018-08-04T11:17:23.888Z,14.53
2018-08-04T11:19:52.338Z,9.80
2018-08-04T11:22:20.756Z,13.35
2018-08-04T11:24:49.427Z,8.68
2018-08-04T11:27:17.831Z,9.90
2018-08-04T11:29:46.378Z,16.70
2018-08-04T11:32:14.976Z,11.33
2018-08-04T11:34:43.527Z,10.70
2018-08-04T11:37:12.246Z,9.90
2018-08-04T11:39:40.664Z,9.37
2018-08-04T11:42:09.266Z,9.57
2018-08-04T11:44:37.997Z,11.50
2018-08-04T11:47:06.867Z,8.60
2018-08-04T11:49:35.283Z,8.90
2018-08-04T11:52:03.680Z,8.00
2018-08-04T11:54:32.401Z,8.70
2018-08-04T11:57:00.851Z,10.37
2018-08-04T11:59:29.287Z,7.20
2018-08-04T12:01:57.833Z,7.67
2018-08-04T12:04:26.233Z,8.03
2018-08-04T12:06:54.702Z,7.83
2018-08-04T12:09:23.141Z,7.63
2018-08-04T12:11:51.605Z,7.03
2018-08-04T12:14:20.060Z,7.33
2018-08-04T12:16:48.503Z,8.13
2018-08-04T12:19:16.952Z,7.60
2018-08-04T12:21:45.419Z,7.40
2018-08-04T12:24:13.845Z,7.00
2018-08-04T12:26:42.296Z,7.10
2018-08-04T12:29:11.244Z,7.90
2018-08-04T12:31:39.672Z,7.67
2018-08-04T12:34:08.083Z,8.07
2018-08-04T12:36:36.548Z,8.50
2018-08-04T12:39:07.895Z,7.73
2018-08-04T12:41:36.439Z,6.97
2018-08-04T12:44:06.407Z,7.30
2018-08-04T12:46:34.837Z,13.10
2018-08-04T12:49:03.326Z,9.10
2018-08-04T12:51:31.751Z,6.95
2018-08-04T12:54:00.211Z,7.03
2018-08-04T12:56:28.740Z,8.15
2018-08-04T12:58:57.421Z,6.97
2018-08-04T13:01:26.115Z,7.13
2018-08-04T13:03:54.566Z,7.27
2018-08-04T13:06:23.148Z,7.53
2018-08-04T13:08:51.864Z,6.93
2018-08-04T13:11:20.275Z,6.93
2018-08-04T13:13:49.155Z,7.30
2018-08-04T13:16:17.953Z,7.27
2018-08-04T13:18:46.433Z,7.23
2018-08-04T13:21:14.935Z,6.83
2018-08-04T13:23:43.349Z,6.22
2018-08-04T13:26:12.106Z,6.50
2018-08-04T13:28:40.570Z,6.43
2018-08-04T13:31:09.008Z,7.00
2018-08-04T13:33:37.771Z,7.12
2018-08-04T13:36:06.200Z,6.93
2018-08-04T13:38:34.931Z,6.87
2018-08-04T13:41:03.331Z,7.10
2018-08-04T13:43:31.809Z,6.30
2018-08-04T13:46:00.368Z,6.67
2018-08-04T13:48:28.812Z,7.00
2018-08-04T13:50:57.446Z,7.80
2018-08-04T13:53:25.897Z,7.20
2018-08-04T13:55:54.824Z,6.97
2018-08-04T13:58:23.312Z,6.90
2018-08-04T14:00:51.756Z,7.10
2018-08-04T14:03:20.245Z,7.13
2018-08-04T14:05:48.730Z,7.00
2018-08-04T14:08:17.384Z,6.90
2018-08-04T14:10:45.837Z,7.58
2018-08-04T14:13:14.307Z,7.63
2018-08-04T14:15:42.694Z,7.20
2018-08-04T14:18:11.166Z,13.00
2018-08-04T14:20:39.616Z,7.53
2018-08-04T14:23:08.168Z,12.63
2018-08-04T14:25:36.667Z,9.67
2018-08-04T14:28:05.100Z,9.10
2018-08-04T14:30:33.493Z,8.27
2018-08-04T14:33:01.932Z,7.60
2018-08-04T14:35:30.448Z,11.40
2018-08-04T14:37:58.950Z,9.20
2018-08-04T14:40:27.390Z,8.73
2018-08-04T14:42:56.022Z,8.80
2018-08-04T14:45:24.435Z,9.70
2018-08-04T14:47:52.854Z,9.00
2018-08-04T14:50:21.566Z,10.10
2018-08-04T14:52:50.008Z,11.10
2018-08-04T14:55:18.768Z,13.10
2018-08-04T14:57:47.257Z,11.63
2018-08-04T15:00:15.796Z,11.80
2018-08-04T15:02:44.491Z,11.43
2018-08-04T15:05:13.510Z,11.73
2018-08-04T15:07:41.982Z,11.30
2018-08-04T15:10:10.566Z,12.33
2018-08-04T15:12:39.234Z,20.73
2018-08-04T15:15:08.309Z,17.85
2018-08-04T15:17:36.779Z,12.03
2018-08-04T15:20:06.266Z,12.87
2018-08-04T15:22:34.951Z,10.67
2018-08-04T15:25:03.447Z,17.33
2018-08-04T15:27:32.322Z,11.33
2018-08-04T15:30:00.799Z,10.83
2018-08-04T15:32:29.226Z,10.37
2018-08-04T15:34:57.708Z,11.38
2018-08-04T15:37:26.460Z,10.23
2018-08-04T15:39:54.916Z,15.80
2018-08-04T15:42:23.415Z,14.33
2018-08-04T15:44:51.831Z,13.50
2018-08-04T15:47:20.559Z,10.53
2018-08-04T15:49:48.980Z,11.90
2018-08-04T15:52:17.648Z,10.77
2018-08-04T15:54:46.175Z,10.37
2018-08-04T15:57:14.686Z,16.27
2018-08-04T15:59:46.111Z,10.73
2018-08-04T16:02:14.556Z,10.53
2018-08-04T16:04:43.007Z,14.83
2018-08-04T16:07:11.661Z,11.80
2018-08-04T16:09:40.083Z,14.87
2018-08-04T16:12:08.511Z,18.53
2018-08-04T16:14:36.999Z,17.80
2018-08-04T16:17:05.505Z,12.37
2018-08-04T16:19:33.975Z,10.27
2018-08-04T16:22:02.437Z,11.73
2018-08-04T16:24:31.552Z,12.30
2018-08-04T16:26:59.932Z,13.20
2018-08-04T16:29:28.370Z,10.63
2018-08-04T16:31:56.842Z,14.53
2018-08-04T16:34:25.271Z,12.77
2018-08-04T16:36:53.886Z,15.70
2018-08-04T16:39:22.379Z,11.70
2018-08-04T16:41:51.139Z,12.37
2018-08-04T16:44:19.650Z,11.00
2018-08-04T16:46:48.160Z,10.80
2018-08-04T16:49:16.877Z,12.17
2018-08-04T16:51:48.527Z,11.03
2018-08-04T16:54:17.011Z,11.37
2018-08-04T16:56:45.696Z,10.40
2018-08-04T16:59:14.162Z,11.47
2018-08-04T17:01:42.743Z,11.23
2018-08-04T17:04:11.487Z,13.45
2018-08-04T17:06:39.943Z,10.87
2018-08-04T17:09:11.051Z,11.37
2018-08-04T17:11:39.487Z,11.43
2018-08-04T17:14:08.320Z,11.40
2018-08-04T17:16:37.100Z,11.67
2018-08-04T17:19:05.771Z,10.97
2018-08-04T17:21:34.732Z,10.37
2018-08-04T17:24:03.401Z,12.50
2018-08-04T17:26:31.891Z,13.40
2018-08-04T17:29:00.538Z,11.47
2018-08-04T17:31:29.223Z,11.60
2018-08-04T17:33:57.708Z,10.70
2018-08-04T17:36:26.188Z,10.73
2018-08-04T17:38:54.951Z,10.47
2018-08-04T17:41:23.554Z,12.53
2018-08-04T17:43:52.018Z,12.80
2018-08-04T17:46:20.492Z,11.60
2018-08-04T17:48:49.133Z,10.87
2018-08-04T17:51:17.612Z,16.23
2018-08-04T17:53:46.183Z,11.30
2018-08-04T17:56:14.607Z,11.53
2018-08-04T17:58:43.302Z,12.50
2018-08-04T18:01:11.921Z,11.20
2018-08-04T18:03:40.466Z,19.48
2018-08-04T18:06:09.383Z,11.93
2018-08-04T18:08:37.823Z,15.77
2018-08-04T18:11:06.306Z,11.43
2018-08-04T18:13:34.772Z,13.47
2018-08-04T18:16:03.322Z,13.83
2018-08-04T18:18:31.857Z,19.80
2018-08-04T18:21:00.295Z,13.63
2018-08-04T18:23:28.735Z,14.90
2018-08-04T18:25:57.126Z,16.23
2018-08-04T18:28:25.599Z,19.17
2018-08-04T18:30:54.115Z,15.17
2018-08-04T18:33:22.723Z,13.23
2018-08-04T18:35:51.214Z,14.90
2018-08-04T18:38:19.923Z,14.93
2018-08-04T18:40:48.346Z,21.23
2018-08-04T18:43:16.878Z,15.93
2018-08-04T18:45:45.352Z,16.25
2018-08-04T18:48:13.849Z,16.00
2018-08-04T18:50:42.340Z,20.23
2018-08-04T18:53:10.969Z,14.97
2018-08-04T18:55:39.525Z,19.30
2018-08-04T18:58:08.646Z,17.73
2018-08-04T19:00:37.555Z,14.07
2018-08-04T19:03:06.149Z,14.53
2018-08-04T19:05:34.555Z,15.67
2018-08-04T19:08:03.024Z,18.77
2018-08-04T19:10:31.545Z,18.20
2018-08-04T19:13:00.031Z,17.40
2018-08-04T19:15:28.494Z,18.42
2018-08-04T19:17:57.267Z,15.70
2018-08-04T19:20:25.712Z,21.50
2018-08-04T19:22:54.160Z,17.37
2018-08-04T19:25:22.610Z,19.00
2018-08-04T19:27:51.228Z,18.17
2018-08-04T19:30:19.645Z,21.60
2018-08-04T19:32:48.112Z,23.33
2018-08-04T19:35:16.553Z,17.47
2018-08-04T19:37:45.020Z,19.80
2018-08-04T19:40:14.316Z,18.77
2018-08-04T19:42:42.959Z,20.67
2018-08-04T19:45:11.655Z,17.77
2018-08-04T19:47:40.066Z,16.50
2018-08-04T19:50:08.577Z,19.50
2018-08-04T19:52:37.088Z,33.80
2018-08-04T19:55:06.092Z,22.57
2018-08-04T19:57:34.515Z,23.97
2018-08-04T20:00:03.074Z,18.83
2018-08-04T20:02:31.539Z,20.37
2018-08-04T20:04:59.955Z,17.47
2018-08-04T20:07:28.599Z,21.77
2018-08-04T20:09:57.041Z,26.43
2018-08-04T20:12:25.501Z,28.33
2018-08-04T20:14:54.056Z,20.27
2018-08-04T20:17:22.521Z,28.57
2018-08-04T20:19:50.980Z,19.07
2018-08-04T20:22:19.400Z,19.90
2018-08-04T20:24:47.892Z,18.50
2018-08-04T20:27:16.619Z,18.00
2018-08-04T20:29:45.136Z,22.33
2018-08-04T20:32:13.569Z,20.87
2018-08-04T20:34:42.011Z,22.10
2018-08-04T20:37:10.707Z,25.43
2018-08-04T20:39:39.215Z,21.27
2018-08-04T20:42:07.663Z,20.23
2018-08-04T20:44:36.437Z,23.63
2018-08-04T20:47:04.878Z,23.77
2018-08-04T20:49:33.309Z,20.25
2018-08-04T20:52:01.791Z,19.40
2018-08-04T20:54:30.227Z,20.17
2018-08-04T20:56:58.732Z,22.23
2018-08-04T20:59:27.319Z,26.37
2018-08-04T21:02:26.774Z,23.40
2018-08-04T21:04:55.233Z,20.40
2018-08-04T21:07:24.759Z,26.67
2018-08-04T21:09:53.500Z,24.33
2018-08-04T21:12:22.003Z,22.70
2018-08-04T21:14:50.440Z,24.40
2018-08-04T21:17:18.900Z,24.30
2018-08-04T21:19:47.323Z,23.33
2018-08-04T21:22:15.743Z,22.67
2018-08-04T21:24:44.170Z,22.97
2018-08-04T21:27:12.797Z,37.85
2018-08-04T21:29:41.243Z,40.63
2018-08-04T21:32:09.706Z,23.50
2018-08-04T21:34:38.144Z,24.70
2018-08-04T21:37:06.566Z,23.40
2018-08-04T21:39:35.044Z,23.40
2018-08-04T21:42:03.685Z,22.03
2018-08-04T21:44:32.139Z,22.70
2018-08-04T21:47:00.593Z,25.37
2018-08-04T21:49:29.735Z,26.25
2018-08-04T21:51:58.182Z,32.33
2018-08-04T21:54:26.672Z,28.63
2018-08-04T21:56:55.145Z,25.40
2018-08-04T21:59:23.604Z,29.15
2018-08-04T22:01:54.096Z,26.82
2018-08-04T22:04:22.487Z,28.53
2018-08-04T22:07:02.123Z,29.63
2018-08-04T22:09:30.554Z,28.43
2018-08-04T22:11:58.952Z,25.13
2018-08-04T22:14:27.704Z,27.93
2018-08-04T22:16:56.116Z,31.00
2018-08-04T22:19:24.515Z,24.30
2018-08-04T22:21:53.314Z,30.83
2018-08-04T22:24:21.715Z,26.30
2018-08-04T22:26:50.116Z,25.55
2018-08-04T22:29:18.533Z,24.20
2018-08-04T22:31:46.936Z,24.60
2018-08-04T22:34:15.423Z,26.10
2018-08-04T22:36:44.031Z,23.17
2018-08-04T22:39:12.625Z,25.97
2018-08-04T22:41:41.113Z,23.95
2018-08-04T22:44:09.815Z,19.90
2018-08-04T22:46:38.496Z,25.83
2018-08-04T22:49:07.163Z,30.73
2018-08-04T22:51:35.632Z,24.53
2018-08-04T22:54:04.062Z,25.73
2018-08-04T22:56:32.819Z,28.80
2018-08-04T22:59:01.229Z,25.97
2018-08-04T23:01:29.708Z,25.20
2018-08-04T23:03:58.210Z,27.73
2018-08-04T23:06:26.640Z,23.93
2018-08-04T23:08:55.064Z,23.30
2018-08-04T23:11:23.451Z,23.80
2018-08-04T23:13:51.870Z,24.65
2018-08-04T23:16:20.316Z,24.33
2018-08-04T23:18:48.726Z,23.32
2018-08-04T23:21:17.397Z,23.30
2018-08-04T23:23:45.806Z,24.23
2018-08-04T23:26:14.222Z,24.00
2018-08-04T23:28:42.646Z,23.30
2018-08-04T23:31:11.144Z,33.67
2018-08-04T23:33:39.555Z,25.07
2018-08-04T23:36:08.400Z,26.17
2018-08-04T23:38:36.832Z,23.73
2018-08-04T23:41:05.268Z,25.27
2018-08-04T23:43:33.667Z,35.10
2018-08-04T23:46:02.108Z,42.17
2018-08-04T23:48:30.524Z,27.67
2018-08-04T23:50:58.963Z,30.03
2018-08-04T23:53:27.555Z,28.37
2018-08-04T23:55:56.033Z,28.27
2018-08-04T23:58:24.444Z,26.23
